Time;durP1;ratioP1;P1;durP2;ratioP2;P2;SDS_P1;SDS_P2;PMS_P1;PMS_P2;Temp;Humidity;BMP_temperature;BMP_pressure;BME280_temperature;BME280_humidity;BME280_pressure;Samples;Min_cycle;Max_cycle;Signal;HPM_P1;HPM_P2
2021/08/27 00:02:21;;;;;;;27.83;10.68;;;;;;;;;;5053752;28;20075;-75
2021/08/27 00:04:47;;;;;;;34.47;10.88;;;;;;;;;;5054386;28;20029;-74
2021/08/27 00:07:12;;;;;;;28.98;10.70;;;;;;;;;;5054044;28;20031;-74
2021/08/27 00:09:37;;;;;;;29.55;10.23;;;;;;;;;;5053376;28;20040;-74
2021/08/27 00:12:03;;;;;;;35.88;11.90;;;;;;;;;;5054417;28;20041;-74
2021/08/27 00:14:28;;;;;;;32.10;12.00;;;;;;;;;;5054015;28;20049;-74
2021/08/27 00:16:54;;;;;;;36.58;11.70;;;;;;;;;;5054509;28;20062;-75
2021/08/27 00:19:19;;;;;;;26.73;10.30;;;;;;;;;;5054103;28;20400;-75
2021/08/27 00:21:44;;;;;;;27.88;10.50;;;;;;;;;;5054130;28;20033;-74
2021/08/27 00:24:10;;;;;;;40.38;12.02;;;;;;;;;;5054095;28;20100;-74
2021/08/27 00:26:35;;;;;;;32.42;11.30;;;;;;;;;;5054069;28;20457;-75
2021/08/27 00:29:00;;;;;;;39.00;11.38;;;;;;;;;;5053968;28;20359;-74
2021/08/27 00:31:26;;;;;;;37.67;11.45;;;;;;;;;;5053283;28;20049;-75
2021/08/27 00:33:51;;;;;;;27.10;10.30;;;;;;;;;;5053151;28;20036;-75
2021/08/27 00:36:16;;;;;;;29.10;10.82;;;;;;;;;;5052983;28;20104;-74
2021/08/27 00:38:42;;;;;;;30.67;10.95;;;;;;;;;;5053402;28;20092;-75
2021/08/27 00:41:07;;;;;;;38.13;11.60;;;;;;;;;;5052908;28;20033;-75
2021/08/27 00:43:32;;;;;;;27.80;10.63;;;;;;;;;;5053084;28;20021;-74
2021/08/27 00:45:58;;;;;;;33.55;10.40;;;;;;;;;;5053022;28;20108;-74
2021/08/27 00:48:23;;;;;;;34.35;11.80;;;;;;;;;;5052872;28;20040;-75
2021/08/27 00:50:48;;;;;;;41.67;11.50;;;;;;;;;;5052938;28;20025;-75
2021/08/27 00:53:14;;;;;;;36.60;11.23;;;;;;;;;;5052900;28;20060;-74
2021/08/27 00:55:40;;;;;;;31.67;11.05;;;;;;;;;;5052629;28;20428;-75
2021/08/27 00:58:05;;;;;;;35.95;10.85;;;;;;;;;;5052848;28;20017;-74
2021/08/27 01:00:31;;;;;;;31.35;10.93;;;;;;;;;;5052606;28;20043;-74
2021/08/27 01:02:57;;;;;;;31.50;10.75;;;;;;;;;;5052665;28;20025;-75
2021/08/27 01:05:22;;;;;;;30.92;10.38;;;;;;;;;;5052314;28;20074;-74
2021/08/27 01:07:52;;;;;;;30.90;10.82;;;;;;;;;;5052949;28;20024;-75
2021/08/27 01:10:29;;;;;;;29.55;10.02;;;;;;;;;;5052576;28;20076;-75
2021/08/27 01:13:01;;;;;;;41.47;11.70;;;;;;;;;;5052569;28;20025;-75
2021/08/27 01:15:29;;;;;;;32.25;10.82;;;;;;;;;;5052387;28;20052;-75
2021/08/27 01:18:01;;;;;;;26.98;9.93;;;;;;;;;;5052547;28;20108;-75
2021/08/27 01:20:32;;;;;;;32.15;10.82;;;;;;;;;;5050957;28;20496;-75
2021/08/27 01:23:23;;;;;;;44.45;11.38;;;;;;;;;;5052595;28;20033;-75
2021/08/27 01:25:51;;;;;;;32.00;10.13;;;;;;;;;;5052379;28;20432;-75
2021/08/27 01:28:16;;;;;;;36.30;11.60;;;;;;;;;;5052332;28;20032;-75
2021/08/27 01:30:54;;;;;;;36.15;11.40;;;;;;;;;;5010590;28;1194431;-75
2021/08/27 01:33:22;;;;;;;30.38;10.07;;;;;;;;;;5053105;28;20060;-76
2021/08/27 01:35:50;;;;;;;30.38;10.75;;;;;;;;;;5053423;28;20033;-75
2021/08/27 01:38:16;;;;;;;26.77;10.15;;;;;;;;;;5053066;28;20017;-75
2021/08/27 01:40:45;;;;;;;33.38;10.55;;;;;;;;;;5053065;28;20397;-75
2021/08/27 01:43:12;;;;;;;26.33;10.32;;;;;;;;;;5052943;28;20044;-75
2021/08/27 01:45:38;;;;;;;37.15;11.23;;;;;;;;;;5052969;28;20067;-74
2021/08/27 01:48:05;;;;;;;36.00;11.13;;;;;;;;;;5053355;28;20040;-74
2021/08/27 01:50:30;;;;;;;30.20;11.00;;;;;;;;;;5052945;28;20037;-75
2021/08/27 01:52:55;;;;;;;34.72;10.15;;;;;;;;;;5053012;28;20377;-75
2021/08/27 01:55:22;;;;;;;35.88;11.35;;;;;;;;;;5052910;28;20357;-76
2021/08/27 01:57:48;;;;;;;32.17;11.77;;;;;;;;;;5052857;28;20043;-74
2021/08/27 02:00:13;;;;;;;33.95;10.38;;;;;;;;;;5052627;28;20107;-75
2021/08/27 02:02:40;;;;;;;27.73;10.57;;;;;;;;;;5052706;28;20029;-74
2021/08/27 02:05:06;;;;;;;34.83;10.15;;;;;;;;;;5052851;28;20025;-75
2021/08/27 02:07:32;;;;;;;37.42;10.48;;;;;;;;;;5052731;28;20028;-74
2021/08/27 02:09:57;;;;;;;32.88;10.38;;;;;;;;;;5052785;28;20374;-74
2021/08/27 02:12:23;;;;;;;31.00;10.82;;;;;;;;;;5052310;28;20409;-75
2021/08/27 02:14:50;;;;;;;30.15;10.10;;;;;;;;;;5052979;28;20024;-75
2021/08/27 02:17:15;;;;;;;33.20;10.27;;;;;;;;;;5052645;28;20031;-74
2021/08/27 02:19:41;;;;;;;40.42;11.23;;;;;;;;;;5052746;28;20037;-75
2021/08/27 02:22:10;;;;;;;31.00;10.63;;;;;;;;;;5052370;28;20465;-75
2021/08/27 02:24:38;;;;;;;35.70;10.35;;;;;;;;;;5052618;28;20040;-75
2021/08/27 02:27:05;;;;;;;36.60;11.10;;;;;;;;;;5052649;28;20037;-75
2021/08/27 02:29:31;;;;;;;38.78;11.20;;;;;;;;;;5052528;28;20071;-74
2021/08/27 02:32:01;;;;;;;33.92;10.32;;;;;;;;;;5053425;28;20057;-75
2021/08/27 02:34:27;;;;;;;35.15;10.65;;;;;;;;;;5056098;28;20044;-75
2021/08/27 02:36:56;;;;;;;26.20;9.38;;;;;;;;;;5055951;28;20358;-75
2021/08/27 02:39:22;;;;;;;35.38;11.90;;;;;;;;;;5056042;28;20032;-76
2021/08/27 02:41:48;;;;;;;40.17;12.35;;;;;;;;;;5056107;28;20416;-75
2021/08/27 02:44:14;;;;;;;37.03;10.32;;;;;;;;;;5055959;28;20029;-75
2021/08/27 02:46:39;;;;;;;33.08;10.50;;;;;;;;;;5055881;28;20386;-75
2021/08/27 02:49:05;;;;;;;39.75;11.13;;;;;;;;;;5038066;28;20097;-75
2021/08/27 02:51:34;;;;;;;38.80;11.50;;;;;;;;;;5055670;28;20413;-75
2021/08/27 02:54:01;;;;;;;32.00;10.50;;;;;;;;;;5055688;28;20116;-75
2021/08/27 02:56:28;;;;;;;30.55;10.02;;;;;;;;;;5055359;28;20485;-75
2021/08/27 02:58:57;;;;;;;42.25;10.27;;;;;;;;;;5056036;28;20021;-75
2021/08/27 03:01:35;;;;;;;35.83;10.45;;;;;;;;;;5055612;28;20074;-76
2021/08/27 03:04:11;;;;;;;39.78;11.23;;;;;;;;;;5055814;28;20115;-74
2021/08/27 03:06:40;;;;;;;33.72;10.73;;;;;;;;;;5055512;28;20033;-75
2021/08/27 03:09:08;;;;;;;34.40;10.38;;;;;;;;;;5055577;28;20029;-75
2021/08/27 03:11:45;;;;;;;34.13;10.07;;;;;;;;;;5055313;28;20037;-74
2021/08/27 03:14:36;;;;;;;31.02;10.38;;;;;;;;;;5055541;28;20086;-74
2021/08/27 03:17:03;;;;;;;30.13;10.38;;;;;;;;;;5051149;28;20067;-75
2021/08/27 03:19:34;;;;;;;34.45;9.95;;;;;;;;;;5055286;28;20025;-75
2021/08/27 03:22:00;;;;;;;44.60;10.15;;;;;;;;;;5054955;28;20029;-75
2021/08/27 03:24:29;;;;;;;29.75;9.93;;;;;;;;;;5055177;28;20021;-75
2021/08/27 03:26:57;;;;;;;39.05;10.57;;;;;;;;;;5055227;28;20037;-75
2021/08/27 03:29:23;;;;;;;32.40;10.10;;;;;;;;;;5055100;28;20033;-75
2021/08/27 03:31:49;;;;;;;34.58;10.55;;;;;;;;;;5055146;28;20132;-75
2021/08/27 03:34:14;;;;;;;26.42;9.52;;;;;;;;;;5054744;28;20029;-75
2021/08/27 03:36:41;;;;;;;36.65;10.85;;;;;;;;;;5054719;28;20401;-75
2021/08/27 03:39:07;;;;;;;35.20;11.48;;;;;;;;;;5055037;28;20048;-74
2021/08/27 03:41:34;;;;;;;33.10;10.50;;;;;;;;;;5054763;28;20067;-74
2021/08/27 03:44:00;;;;;;;37.95;10.27;;;;;;;;;;5053937;28;20086;-75
2021/08/27 03:46:25;;;;;;;34.97;10.82;;;;;;;;;;5054702;28;20021;-74
2021/08/27 03:48:51;;;;;;;38.50;10.25;;;;;;;;;;5054577;28;20025;-75
2021/08/27 03:51:17;;;;;;;37.55;10.25;;;;;;;;;;5054641;28;20029;-74
2021/08/27 03:53:43;;;;;;;29.67;10.25;;;;;;;;;;5054933;28;20074;-75
2021/08/27 03:56:10;;;;;;;42.38;11.20;;;;;;;;;;5054710;28;20036;-75
2021/08/27 03:58:36;;;;;;;34.33;10.65;;;;;;;;;;5054483;28;20029;-75
2021/08/27 04:01:02;;;;;;;36.10;10.50;;;;;;;;;;5054637;28;20021;-75
2021/08/27 04:03:27;;;;;;;47.58;10.75;;;;;;;;;;5054340;28;20476;-75
2021/08/27 04:06:01;;;;;;;35.67;10.13;;;;;;;;;;5054639;28;20029;-75
2021/08/27 04:08:27;;;;;;;35.25;10.23;;;;;;;;;;5054520;28;20017;-75
2021/08/27 04:10:52;;;;;;;32.40;9.50;;;;;;;;;;5054290;28;20492;-75
2021/08/27 04:13:17;;;;;;;43.03;11.73;;;;;;;;;;5054260;28;20393;-75
2021/08/27 04:15:43;;;;;;;38.95;11.20;;;;;;;;;;5053919;28;20100;-74
2021/08/27 04:18:08;;;;;;;33.72;10.10;;;;;;;;;;5054237;28;20032;-75
2021/08/27 04:20:33;;;;;;;36.75;9.48;;;;;;;;;;5052939;28;20037;-75
2021/08/27 04:22:59;;;;;;;31.05;9.73;;;;;;;;;;5054134;28;20130;-74
2021/08/27 04:25:24;;;;;;;31.02;9.07;;;;;;;;;;5053994;28;20060;-76
2021/08/27 04:27:49;;;;;;;37.63;10.23;;;;;;;;;;5054024;28;20036;-75
2021/08/27 04:30:14;;;;;;;34.80;9.80;;;;;;;;;;5053947;28;20025;-75
2021/08/27 04:32:40;;;;;;;48.10;11.13;;;;;;;;;;5053624;28;20536;-75
2021/08/27 04:35:05;;;;;;;39.75;10.05;;;;;;;;;;5053557;28;20115;-75
2021/08/27 04:37:31;;;;;;;39.10;10.25;;;;;;;;;;5053835;28;20063;-75
2021/08/27 04:39:56;;;;;;;30.52;9.13;;;;;;;;;;5053861;28;20029;-74
2021/08/27 04:42:22;;;;;;;31.25;9.45;;;;;;;;;;5053676;28;20074;-75
2021/08/27 04:44:47;;;;;;;26.33;8.98;;;;;;;;;;5053333;28;20021;-75
2021/08/27 04:47:12;;;;;;;34.63;10.57;;;;;;;;;;5053682;28;20048;-75
2021/08/27 04:49:37;;;;;;;45.78;11.00;;;;;;;;;;5053671;28;20469;-75
2021/08/27 04:52:03;;;;;;;31.90;10.02;;;;;;;;;;5053571;28;20036;-74
2021/08/27 04:54:28;;;;;;;44.90;9.50;;;;;;;;;;5052086;28;20064;-75
2021/08/27 04:56:53;;;;;;;35.25;10.02;;;;;;;;;;5053514;28;20087;-75
2021/08/27 04:59:19;;;;;;;28.98;9.70;;;;;;;;;;5053567;28;20021;-74
2021/08/27 05:01:44;;;;;;;39.67;10.50;;;;;;;;;;5053156;28;20024;-75
2021/08/27 05:04:09;;;;;;;34.40;9.73;;;;;;;;;;5053560;28;20063;-75
2021/08/27 05:06:35;;;;;;;44.50;11.40;;;;;;;;;;5053364;28;20099;-75
2021/08/27 05:09:00;;;;;;;40.10;9.18;;;;;;;;;;5053106;28;20029;-75
2021/08/27 05:11:25;;;;;;;29.80;10.60;;;;;;;;;;5053221;28;20033;-75
2021/08/27 05:13:50;;;;;;;32.58;9.38;;;;;;;;;;5053638;28;20017;-74
2021/08/27 05:16:16;;;;;;;36.28;11.63;;;;;;;;;;5053294;28;20032;-75
2021/08/27 05:18:41;;;;;;;25.88;8.55;;;;;;;;;;5053297;28;20083;-74
2021/08/27 05:21:06;;;;;;;36.17;9.63;;;;;;;;;;5053343;28;20071;-75
2021/08/27 05:23:31;;;;;;;39.70;9.63;;;;;;;;;;5053117;28;20082;-75
2021/08/27 05:25:57;;;;;;;40.25;10.55;;;;;;;;;;5053358;28;20037;-74
2021/08/27 05:28:22;;;;;;;31.27;9.23;;;;;;;;;;5053433;28;20457;-75
2021/08/27 05:30:47;;;;;;;40.40;9.68;;;;;;;;;;5052650;28;20048;-74
2021/08/27 05:33:13;;;;;;;35.60;8.85;;;;;;;;;;5052705;28;20541;-75
2021/08/27 05:35:38;;;;;;;36.92;10.23;;;;;;;;;;5053081;28;20050;-75
2021/08/27 05:38:04;;;;;;;34.85;9.43;;;;;;;;;;5053144;28;20040;-74
2021/08/27 05:40:30;;;;;;;42.95;10.57;;;;;;;;;;5052977;28;20040;-75
2021/08/27 05:42:55;;;;;;;29.10;9.40;;;;;;;;;;5052646;28;20029;-75
2021/08/27 05:45:20;;;;;;;34.45;9.45;;;;;;;;;;5053021;28;20029;-75
2021/08/27 05:47:45;;;;;;;42.80;9.95;;;;;;;;;;5052963;28;20876;-75
2021/08/27 05:50:13;;;;;;;39.17;10.32;;;;;;;;;;5053003;28;20024;-74
2021/08/27 05:52:39;;;;;;;31.30;9.10;;;;;;;;;;5052841;28;20477;-74
2021/08/27 05:55:04;;;;;;;40.28;10.20;;;;;;;;;;5052946;28;20041;-75
2021/08/27 05:57:29;;;;;;;34.50;10.55;;;;;;;;;;5052827;28;20483;-75
2021/08/27 05:59:55;;;;;;;30.15;10.07;;;;;;;;;;5053239;28;20025;-75
2021/08/27 06:02:20;;;;;;;42.03;11.05;;;;;;;;;;5052938;28;20496;-75
2021/08/27 06:04:45;;;;;;;35.47;10.60;;;;;;;;;;5052805;28;20028;-75
2021/08/27 06:07:11;;;;;;;36.25;10.90;;;;;;;;;;5055051;28;20381;-74
2021/08/27 06:09:37;;;;;;;34.50;10.82;;;;;;;;;;5056513;28;20041;-75
2021/08/27 06:12:02;;;;;;;42.47;11.43;;;;;;;;;;5038406;28;20048;-75
2021/08/27 06:14:27;;;;;;;44.05;12.00;;;;;;;;;;5056463;28;20033;-77
2021/08/27 06:16:53;;;;;;;35.15;10.55;;;;;;;;;;5056715;28;20202;-75
2021/08/27 06:19:18;;;;;;;48.63;11.75;;;;;;;;;;5056457;28;20031;-75
2021/08/27 06:21:43;;;;;;;36.28;11.00;;;;;;;;;;5056171;28;20041;-75
2021/08/27 06:24:08;;;;;;;39.80;10.93;;;;;;;;;;5056458;28;20040;-75
2021/08/27 06:26:34;;;;;;;31.30;11.10;;;;;;;;;;5055947;28;20031;-75
2021/08/27 06:29:00;;;;;;;36.92;10.68;;;;;;;;;;5056334;28;20029;-74
2021/08/27 06:31:26;;;;;;;37.67;11.13;;;;;;;;;;5056255;28;20048;-74
2021/08/27 06:33:51;;;;;;;39.97;11.82;;;;;;;;;;5055885;28;20075;-76
2021/08/27 06:36:17;;;;;;;36.63;10.70;;;;;;;;;;5056150;28;20072;-75
2021/08/27 06:38:42;;;;;;;35.38;10.85;;;;;;;;;;5056070;28;20062;-75
2021/08/27 06:41:08;;;;;;;28.73;10.02;;;;;;;;;;5056100;28;20351;-76
2021/08/27 06:43:35;;;;;;;32.63;11.43;;;;;;;;;;5055862;28;20032;-76
2021/08/27 06:46:03;;;;;;;41.97;11.93;;;;;;;;;;5055983;28;20041;-76
2021/08/27 06:48:28;;;;;;;35.78;11.13;;;;;;;;;;5055889;28;20017;-76
2021/08/27 06:50:54;;;;;;;29.10;10.43;;;;;;;;;;5055851;28;20044;-76
2021/08/27 06:53:19;;;;;;;38.90;11.60;;;;;;;;;;5055576;28;20033;-76
2021/08/27 06:55:45;;;;;;;41.70;11.60;;;;;;;;;;5055788;28;20507;-75
2021/08/27 06:58:10;;;;;;;27.80;10.00;;;;;;;;;;5055816;28;20103;-76
2021/08/27 07:00:35;;;;;;;33.05;10.95;;;;;;;;;;5055476;28;20048;-75
2021/08/27 07:03:01;;;;;;;31.15;11.20;;;;;;;;;;5055172;28;20450;-75
2021/08/27 07:05:26;;;;;;;33.65;11.13;;;;;;;;;;5055392;28;20109;-75
2021/08/27 07:07:52;;;;;;;31.05;10.95;;;;;;;;;;5055472;28;20029;-76
2021/08/27 07:10:17;;;;;;;40.15;11.43;;;;;;;;;;5055044;28;20074;-77
2021/08/27 07:12:42;;;;;;;42.50;12.07;;;;;;;;;;5055342;28;20090;-76
2021/08/27 07:15:08;;;;;;;23.35;10.00;;;;;;;;;;5055203;28;20058;-76
2021/08/27 07:17:33;;;;;;;31.17;11.52;;;;;;;;;;5055232;28;20029;-75
2021/08/27 07:19:59;;;;;;;24.50;9.95;;;;;;;;;;5055384;28;20028;-76
2021/08/27 07:22:24;;;;;;;38.03;12.15;;;;;;;;;;5055300;28;20040;-76
2021/08/27 07:24:49;;;;;;;32.38;11.23;;;;;;;;;;5055203;28;20408;-76
2021/08/27 07:27:15;;;;;;;29.70;10.93;;;;;;;;;;5055181;28;20111;-76
2021/08/27 07:29:40;;;;;;;33.75;10.57;;;;;;;;;;5055056;28;20056;-76
2021/08/27 07:32:11;;;;;;;23.95;9.70;;;;;;;;;;5055230;28;20053;-76
2021/08/27 07:34:36;;;;;;;22.60;9.40;;;;;;;;;;5054895;28;20447;-76
2021/08/27 07:37:02;;;;;;;26.65;10.48;;;;;;;;;;5054986;28;20067;-76
2021/08/27 07:39:27;;;;;;;22.00;9.15;;;;;;;;;;5050727;28;20028;-79
2021/08/27 07:41:52;;;;;;;26.83;9.10;;;;;;;;;;5034689;28;20032;-76
2021/08/27 07:44:18;;;;;;;21.13;8.30;;;;;;;;;;5054741;28;20021;-76
2021/08/27 07:46:43;;;;;;;35.15;9.32;;;;;;;;;;5054912;28;20060;-76
2021/08/27 07:49:09;;;;;;;24.80;9.57;;;;;;;;;;5054568;28;20029;-77
2021/08/27 07:51:34;;;;;;;16.60;7.50;;;;;;;;;;5054758;28;20040;-77
2021/08/27 07:53:59;;;;;;;25.80;9.02;;;;;;;;;;5054544;28;20021;-76
2021/08/27 07:56:25;;;;;;;20.88;7.50;;;;;;;;;;5053926;28;20378;-77
2021/08/27 07:58:50;;;;;;;20.05;8.00;;;;;;;;;;5045263;28;20036;-78
2021/08/27 08:01:15;;;;;;;14.63;7.05;;;;;;;;;;5042513;28;20481;-78
2021/08/27 08:03:41;;;;;;;18.33;7.88;;;;;;;;;;5050649;28;20446;-79
2021/08/27 08:06:06;;;;;;;17.13;7.00;;;;;;;;;;5050340;28;20032;-77
2021/08/27 08:08:32;;;;;;;14.73;6.65;;;;;;;;;;5051266;28;20111;-78
2021/08/27 08:10:57;;;;;;;20.20;7.10;;;;;;;;;;5050869;28;20461;-76
2021/08/27 08:13:22;;;;;;;14.65;5.88;;;;;;;;;;5050991;28;20032;-76
2021/08/27 08:15:47;;;;;;;11.63;4.40;;;;;;;;;;5050208;28;20104;-76
2021/08/27 08:18:13;;;;;;;13.57;5.25;;;;;;;;;;5050983;28;20021;-76
2021/08/27 08:20:38;;;;;;;10.57;5.38;;;;;;;;;;5050746;28;20035;-76
2021/08/27 08:23:03;;;;;;;8.77;4.05;;;;;;;;;;5050190;28;20883;-78
2021/08/27 08:25:29;;;;;;;9.13;4.20;;;;;;;;;;5050414;28;20025;-77
2021/08/27 08:27:54;;;;;;;7.20;3.55;;;;;;;;;;5051283;28;20039;-76
2021/08/27 08:30:19;;;;;;;9.73;3.90;;;;;;;;;;5049778;28;20100;-76
2021/08/27 08:32:44;;;;;;;7.47;3.50;;;;;;;;;;5050311;28;20041;-77
2021/08/27 08:35:10;;;;;;;5.95;2.83;;;;;;;;;;5050046;28;20045;-77
2021/08/27 08:37:41;;;;;;;5.80;2.97;;;;;;;;;;5050490;28;20021;-76
2021/08/27 08:40:08;;;;;;;6.80;2.90;;;;;;;;;;5050643;28;20036;-76
2021/08/27 08:42:33;;;;;;;7.68;2.55;;;;;;;;;;5051113;28;20033;-77
2021/08/27 08:44:58;;;;;;;7.15;2.83;;;;;;;;;;5049583;28;20428;-75
2021/08/27 08:47:24;;;;;;;5.35;2.63;;;;;;;;;;5050448;28;20033;-76
2021/08/27 08:49:49;;;;;;;5.55;2.65;;;;;;;;;;5050123;28;20587;-76
2021/08/27 08:52:16;;;;;;;6.53;2.83;;;;;;;;;;5050233;28;20377;-76
2021/08/27 08:54:41;;;;;;;7.43;2.55;;;;;;;;;;5050378;28;20111;-76
2021/08/27 08:57:06;;;;;;;5.53;2.63;;;;;;;;;;5049643;28;20115;-77
2021/08/27 08:59:33;;;;;;;3.92;2.20;;;;;;;;;;5049597;28;20460;-77
2021/08/27 09:01:59;;;;;;;6.68;2.70;;;;;;;;;;5049635;28;20473;-76
2021/08/27 09:04:27;;;;;;;5.65;2.30;;;;;;;;;;5049689;28;20033;-76
2021/08/27 09:06:52;;;;;;;5.20;2.25;;;;;;;;;;5049688;28;20013;-79
2021/08/27 09:09:35;;;;;;;5.45;2.13;;;;;;;;;;5050572;28;20036;-76
2021/08/27 09:12:15;;;;;;;14.68;2.83;;;;;;;;;;5049824;28;20032;-76
2021/08/27 09:14:41;;;;;;;5.88;2.33;;;;;;;;;;5049438;28;20416;-77
2021/08/27 09:17:06;;;;;;;5.70;1.92;;;;;;;;;;5049703;28;20035;-77
2021/08/27 09:19:51;;;;;;;6.10;2.28;;;;;;;;;;5049837;28;20075;-76
2021/08/27 09:22:16;;;;;;;7.38;2.17;;;;;;;;;;5031019;28;20032;-77
2021/08/27 09:24:42;;;;;;;5.72;1.77;;;;;;;;;;5048575;28;20457;-77
2021/08/27 09:27:08;;;;;;;6.68;1.73;;;;;;;;;;5049488;28;20075;-78
2021/08/27 09:29:39;;;;;;;5.95;2.25;;;;;;;;;;5050360;28;20021;-77
2021/08/27 09:32:23;;;;;;;3.85;1.92;;;;;;;;;;5049815;28;20044;-76
2021/08/27 09:34:58;;;;;;;5.50;2.30;;;;;;;;;;5049093;28;20037;-76
2021/08/27 09:37:33;;;;;;;5.00;1.98;;;;;;;;;;5049096;28;20508;-76
2021/08/27 09:39:59;;;;;;;14.48;2.22;;;;;;;;;;5049619;28;20029;-77
2021/08/27 09:42:34;;;;;;;4.82;1.65;;;;;;;;;;5051810;28;20527;-77
2021/08/27 09:45:00;;;;;;;4.78;1.85;;;;;;;;;;5053039;28;20029;-78
2021/08/27 09:47:25;;;;;;;5.28;1.95;;;;;;;;;;5053795;28;20124;-76
2021/08/27 09:49:50;;;;;;;7.55;2.33;;;;;;;;;;5052183;28;20021;-78
2021/08/27 09:52:16;;;;;;;5.13;2.15;;;;;;;;;;5052188;28;20431;-76
2021/08/27 09:54:46;;;;;;;4.75;2.10;;;;;;;;;;5051186;28;20049;-75
2021/08/27 09:57:12;;;;;;;6.53;2.17;;;;;;;;;;5052582;28;21011;-76
2021/08/27 09:59:38;;;;;;;5.68;1.70;;;;;;;;;;5052980;28;20065;-78
2021/08/27 10:02:04;;;;;;;4.55;1.88;;;;;;;;;;5052982;28;20124;-76
2021/08/27 10:04:31;;;;;;;5.32;2.03;;;;;;;;;;5053116;28;20028;-75
2021/08/27 10:06:57;;;;;;;3.75;1.92;;;;;;;;;;5052067;28;20033;-76
2021/08/27 10:09:22;;;;;;;5.70;2.15;;;;;;;;;;5053047;28;20090;-75
2021/08/27 10:11:54;;;;;;;5.20;2.05;;;;;;;;;;5052832;28;20037;-76
2021/08/27 10:14:20;;;;;;;4.50;1.80;;;;;;;;;;5052821;28;20029;-75
2021/08/27 10:16:45;;;;;;;2.67;1.60;;;;;;;;;;5052333;28;20154;-75
2021/08/27 10:19:11;;;;;;;7.03;1.88;;;;;;;;;;5052737;28;20017;-77
2021/08/27 10:21:36;;;;;;;4.15;2.30;;;;;;;;;;5053272;28;20033;-77
2021/08/27 10:24:01;;;;;;;5.72;2.00;;;;;;;;;;5052588;28;20037;-76
2021/08/27 10:26:27;;;;;;;5.15;2.40;;;;;;;;;;5052129;28;20365;-76
2021/08/27 10:28:53;;;;;;;8.10;3.25;;;;;;;;;;5052624;28;20443;-76
2021/08/27 10:31:38;;;;;;;5.57;2.15;;;;;;;;;;5052334;28;20502;-75
2021/08/27 10:34:03;;;;;;;7.22;2.25;;;;;;;;;;5052109;28;20466;-76
2021/08/27 10:36:28;;;;;;;7.85;2.60;;;;;;;;;;5051887;28;20032;-75
2021/08/27 10:38:54;;;;;;;6.68;2.20;;;;;;;;;;5052963;28;20361;-75
2021/08/27 10:41:20;;;;;;;4.78;1.90;;;;;;;;;;5052446;28;20516;-79
2021/08/27 10:44:08;;;;;;;5.50;1.90;;;;;;;;;;5048599;28;20037;-75
2021/08/27 10:46:48;;;;;;;5.72;1.88;;;;;;;;;;5051485;28;20040;-76
2021/08/27 10:49:15;;;;;;;6.25;2.33;;;;;;;;;;5042340;28;20037;-78
2021/08/27 10:51:41;;;;;;;4.00;1.80;;;;;;;;;;5050973;28;20116;-77
2021/08/27 10:54:07;;;;;;;5.45;1.88;;;;;;;;;;5050883;28;20481;-76
2021/08/27 10:56:51;;;;;;;4.57;1.65;;;;;;;;;;5051255;28;20027;-76
2021/08/27 10:59:37;;;;;;;5.35;1.63;;;;;;;;;;5051655;28;20032;-75
2021/08/27 11:02:04;;;;;;;5.25;1.80;;;;;;;;;;5051949;28;20051;-79
2021/08/27 11:04:50;;;;;;;2.88;1.70;;;;;;;;;;5052796;28;20025;-76
2021/08/27 11:07:17;;;;;;;3.55;1.65;;;;;;;;;;5050983;28;20132;-76
2021/08/27 11:09:58;;;;;;;3.20;1.45;;;;;;;;;;5052139;28;20033;-76
2021/08/27 11:12:28;;;;;;;7.30;2.40;;;;;;;;;;5051934;28;20094;-76
2021/08/27 11:14:54;;;;;;;5.28;2.00;;;;;;;;;;5051404;28;20384;-76
2021/08/27 11:17:19;;;;;;;7.03;1.80;;;;;;;;;;5051209;28;20037;-76
2021/08/27 11:19:45;;;;;;;3.35;1.55;;;;;;;;;;5052171;28;20035;-77
2021/08/27 11:22:10;;;;;;;2.33;1.27;;;;;;;;;;5052855;28;20033;-76
2021/08/27 11:24:36;;;;;;;3.75;1.52;;;;;;;;;;5051669;28;20036;-76
2021/08/27 11:27:03;;;;;;;5.00;1.50;;;;;;;;;;5051355;28;20021;-76
2021/08/27 11:29:35;;;;;;;2.92;1.45;;;;;;;;;;5051845;28;20032;-75
2021/08/27 11:32:28;;;;;;;4.57;1.77;;;;;;;;;;5051167;28;20083;-76
2021/08/27 11:34:57;;;;;;;3.58;1.75;;;;;;;;;;5051737;28;20170;-79
2021/08/27 11:37:24;;;;;;;4.13;1.73;;;;;;;;;;5051339;28;20033;-76
2021/08/27 11:39:50;;;;;;;3.15;1.50;;;;;;;;;;5051128;28;20108;-76
2021/08/27 11:42:16;;;;;;;3.72;1.70;;;;;;;;;;5051579;28;20083;-76
2021/08/27 11:44:43;;;;;;;5.40;1.92;;;;;;;;;;5051531;28;20047;-76
2021/08/27 11:47:12;;;;;;;3.30;1.35;;;;;;;;;;5050991;28;20032;-75
2021/08/27 11:49:41;;;;;;;2.10;1.00;;;;;;;;;;5050489;28;20381;-75
2021/08/27 11:52:11;;;;;;;5.43;2.03;;;;;;;;;;5051198;28;20080;-76
2021/08/27 11:54:36;;;;;;;6.55;1.30;;;;;;;;;;5051772;28;20025;-77
2021/08/27 11:57:02;;;;;;;3.80;1.38;;;;;;;;;;5051379;28;20040;-76
2021/08/27 11:59:28;;;;;;;3.53;1.30;;;;;;;;;;5051452;28;20029;-76
2021/08/27 12:01:56;;;;;;;3.38;1.40;;;;;;;;;;5050897;28;20017;-76
2021/08/27 12:04:29;;;;;;;3.42;1.40;;;;;;;;;;5049866;28;20025;-76
2021/08/27 12:07:07;;;;;;;4.60;1.77;;;;;;;;;;5051020;28;20067;-76
2021/08/27 12:09:33;;;;;;;4.20;1.58;;;;;;;;;;5051398;28;20029;-76
2021/08/27 12:11:58;;;;;;;5.57;1.50;;;;;;;;;;5051041;28;20051;-76
2021/08/27 12:14:42;;;;;;;6.18;1.58;;;;;;;;;;5051638;28;20048;-76
2021/08/27 12:17:07;;;;;;;3.72;1.77;;;;;;;;;;5050739;28;20115;-76
2021/08/27 12:19:37;;;;;;;4.85;1.83;;;;;;;;;;5051155;28;20064;-76
2021/08/27 12:22:02;;;;;;;4.03;1.55;;;;;;;;;;5051358;28;20032;-76
2021/08/27 12:24:33;;;;;;;5.55;1.80;;;;;;;;;;5051008;28;20025;-76
2021/08/27 12:26:58;;;;;;;5.35;1.75;;;;;;;;;;5050976;28;20037;-76
2021/08/27 12:29:23;;;;;;;4.90;1.58;;;;;;;;;;5051070;28;20563;-76
2021/08/27 12:31:51;;;;;;;5.50;2.00;;;;;;;;;;5050567;28;20106;-76
2021/08/27 12:34:18;;;;;;;3.13;1.35;;;;;;;;;;5051018;28;20033;-76
2021/08/27 12:36:43;;;;;;;4.35;1.40;;;;;;;;;;5050759;28;20450;-76
2021/08/27 12:39:08;;;;;;;4.82;1.67;;;;;;;;;;5050696;28;20095;-77
2021/08/27 12:41:37;;;;;;;3.97;1.48;;;;;;;;;;5051698;28;20036;-75
2021/08/27 12:44:09;;;;;;;4.75;2.42;;;;;;;;;;5051540;28;20021;-76
2021/08/27 12:46:35;;;;;;;3.20;1.33;;;;;;;;;;5051136;28;20111;-75
2021/08/27 12:49:17;;;;;;;3.65;1.33;;;;;;;;;;5050097;28;20545;-77
2021/08/27 12:51:46;;;;;;;4.45;1.85;;;;;;;;;;5051076;28;20041;-76
2021/08/27 12:54:11;;;;;;;5.55;1.60;;;;;;;;;;5051266;28;20025;-76
2021/08/27 12:56:37;;;;;;;3.97;1.35;;;;;;;;;;5050296;28;20021;-76
2021/08/27 12:59:29;;;;;;;6.35;1.40;;;;;;;;;;5050239;28;20523;-76
2021/08/27 13:01:54;;;;;;;3.53;1.20;;;;;;;;;;5027731;28;20438;-76
2021/08/27 13:04:22;;;;;;;6.35;1.70;;;;;;;;;;5050480;28;20033;-77
2021/08/27 13:06:48;;;;;;;4.90;1.73;;;;;;;;;;5050621;28;20070;-76
2021/08/27 13:09:19;;;;;;;3.38;1.27;;;;;;;;;;5050069;28;20190;-76
2021/08/27 13:11:45;;;;;;;3.28;1.80;;;;;;;;;;5050099;28;20167;-76
2021/08/27 13:14:19;;;;;;;2.45;1.00;;;;;;;;;;5049831;28;20481;-76
2021/08/27 13:16:57;;;;;;;5.03;1.58;;;;;;;;;;5031855;28;20397;-76
2021/08/27 13:19:23;;;;;;;4.85;1.60;;;;;;;;;;5049603;28;20075;-77
2021/08/27 13:21:50;;;;;;;5.03;1.70;;;;;;;;;;5049717;28;20025;-76
2021/08/27 13:24:15;;;;;;;5.32;2.20;;;;;;;;;;5049292;28;20047;-76
2021/08/27 13:26:41;;;;;;;3.60;1.45;;;;;;;;;;5049051;28;20017;-76
2021/08/27 13:29:07;;;;;;;2.13;1.30;;;;;;;;;;5050083;28;20479;-77
2021/08/27 13:31:33;;;;;;;4.68;1.75;;;;;;;;;;5049928;28;20064;-78
2021/08/27 13:33:59;;;;;;;8.60;2.50;;;;;;;;;;5050217;28;20029;-76
2021/08/27 13:36:25;;;;;;;5.57;1.52;;;;;;;;;;5049403;28;20039;-76
2021/08/27 13:38:51;;;;;;;5.70;1.83;;;;;;;;;;5049704;28;20033;-75
2021/08/27 13:41:16;;;;;;;4.00;1.83;;;;;;;;;;5049821;28;20055;-77
2021/08/27 13:43:42;;;;;;;5.20;1.88;;;;;;;;;;5049935;28;20025;-78
2021/08/27 13:46:07;;;;;;;4.35;1.38;;;;;;;;;;5049458;28;20500;-76
2021/08/27 13:48:32;;;;;;;7.00;2.17;;;;;;;;;;5049840;28;20096;-76
2021/08/27 13:50:57;;;;;;;4.35;1.52;;;;;;;;;;5045931;28;20017;-76
2021/08/27 13:53:23;;;;;;;4.43;1.77;;;;;;;;;;5049381;28;20037;-78
2021/08/27 13:55:48;;;;;;;9.38;2.55;;;;;;;;;;5049373;28;20021;-76
2021/08/27 13:58:13;;;;;;;4.28;1.92;;;;;;;;;;5049395;28;20062;-76
2021/08/27 14:00:38;;;;;;;4.53;1.75;;;;;;;;;;5049234;28;20033;-75
2021/08/27 14:03:04;;;;;;;6.95;1.90;;;;;;;;;;5049429;28;20035;-76
2021/08/27 14:05:29;;;;;;;4.00;1.77;;;;;;;;;;5049041;28;20033;-76
2021/08/27 14:07:54;;;;;;;4.13;1.70;;;;;;;;;;5049260;28;20037;-76
2021/08/27 14:10:20;;;;;;;3.55;1.60;;;;;;;;;;5048804;28;20364;-77
2021/08/27 14:12:45;;;;;;;2.75;1.60;;;;;;;;;;5049305;28;20052;-76
2021/08/27 14:15:11;;;;;;;5.97;1.95;;;;;;;;;;5049294;28;20057;-76
2021/08/27 14:17:37;;;;;;;7.00;2.40;;;;;;;;;;5030498;28;20377;-76
2021/08/27 14:20:03;;;;;;;4.68;3.10;;;;;;;;;;5048796;28;20037;-76
2021/08/27 14:22:28;;;;;;;5.95;2.00;;;;;;;;;;5049197;28;20033;-76
2021/08/27 14:24:54;;;;;;;5.43;2.47;;;;;;;;;;5048972;28;20028;-76
2021/08/27 14:27:19;;;;;;;6.70;2.28;;;;;;;;;;5049679;28;20417;-76
2021/08/27 14:29:44;;;;;;;7.85;2.25;;;;;;;;;;5052865;28;20072;-76